createdAt,value
2023-03-22T08:42:03.494Z,23968.00
2023-03-22T08:43:03.479Z,25216.00
2023-03-22T08:44:03.478Z,22880.00
2023-03-22T08:45:03.495Z,23488.00
2023-03-22T08:46:03.549Z,25152.00
2023-03-22T08:47:03.518Z,33536.00
2023-03-22T08:48:03.696Z,33120.00
2023-03-22T08:49:03.535Z,19520.00
2023-03-22T08:50:03.550Z,19040.00
2023-03-22T08:51:03.551Z,18976.00
2023-03-22T08:52:03.560Z,19680.00
2023-03-22T08:53:03.581Z,64928.00
2023-03-22T08:54:03.578Z,65280.00
2023-03-22T08:55:03.593Z,65984.00
2023-03-22T08:56:03.599Z,67168.00
2023-03-22T08:57:03.596Z,55296.00
2023-03-22T08:58:03.630Z,29632.00
2023-03-22T08:59:03.626Z,25728.00
2023-03-22T09:00:03.639Z,24704.00
2023-03-22T09:01:03.888Z,23616.00
2023-03-22T09:02:03.750Z,23200.00
2023-03-22T09:03:03.670Z,23840.00
2023-03-22T09:04:03.737Z,23776.00
2023-03-22T09:05:03.683Z,26304.00
2023-03-22T09:06:03.700Z,31200.00
2023-03-22T09:07:03.704Z,56448.00
2023-03-22T09:08:06.661Z,56928.00
2023-03-22T09:09:03.733Z,52832.00
2023-03-22T09:10:03.751Z,41344.00
2023-03-22T09:11:03.754Z,42880.00
2023-03-22T09:12:03.756Z,50368.00
2023-03-22T09:13:03.781Z,53184.00
2023-03-22T09:14:03.806Z,55840.00
2023-03-22T09:16:06.477Z,41376.00
2023-03-22T09:30:02.184Z,58080.00
2023-03-22T09:31:02.264Z,53600.00
2023-03-22T09:32:02.191Z,54656.00
2023-03-22T09:33:02.200Z,58464.00
2023-03-22T09:34:02.203Z,61184.00
2023-03-22T09:35:02.225Z,65056.00
2023-03-22T09:47:04.717Z,63424.00
2023-03-22T09:48:04.738Z,64448.00
2023-03-22T09:49:04.723Z,67424.00
2023-03-22T09:50:04.729Z,71264.00
2023-03-22T09:51:04.741Z,71616.00
2023-03-22T09:52:04.774Z,72832.00
2023-03-22T09:53:04.761Z,71872.00
2023-03-22T09:54:04.775Z,74016.00
2023-03-22T09:55:04.802Z,68768.00
2023-03-22T09:56:04.811Z,58016.00
2023-03-22T09:57:04.820Z,58784.00
2023-03-22T09:58:04.843Z,50976.00
2023-03-22T09:59:04.864Z,57600.00
2023-03-22T10:00:04.869Z,71104.00
2023-03-22T10:01:05.042Z,62880.00
2023-03-22T10:02:05.184Z,74016.00
2023-03-22T10:03:04.930Z,74592.00
2023-03-22T10:04:04.959Z,68096.00
2023-03-22T10:05:04.945Z,70656.00
2023-03-22T10:06:04.958Z,61888.00
2023-03-22T10:07:04.976Z,50496.00
2023-03-22T10:08:04.981Z,39648.00
2023-03-22T10:09:05.004Z,37312.00
2023-03-22T10:10:05.026Z,35616.00
2023-03-22T10:11:05.029Z,41952.00
2023-03-22T10:12:47.614Z,48352.00
2023-03-22T10:13:47.609Z,35840.00
2023-03-22T10:14:47.624Z,34176.00
2023-03-22T10:15:47.707Z,41280.00
2023-03-22T10:16:47.657Z,35968.00
2023-03-22T10:17:47.658Z,36064.00
2023-03-22T10:18:47.709Z,45344.00
2023-03-22T10:20:40.255Z,46496.00
2023-03-22T10:21:40.267Z,48416.00
2023-03-22T10:22:40.285Z,52544.00
2023-03-22T10:23:41.805Z,56000.00
2023-03-22T10:24:40.314Z,55872.00
2023-03-22T10:25:40.593Z,59008.00
2023-03-22T10:26:40.334Z,61152.00
2023-03-22T10:27:40.346Z,63040.00
2023-03-22T10:28:40.375Z,65824.00
2023-03-22T10:29:40.376Z,61760.00
2023-03-22T10:30:40.670Z,57728.00
2023-03-22T10:31:40.448Z,50336.00
2023-03-22T10:32:54.797Z,57504.00
2023-03-22T10:33:40.457Z,59328.00
2023-03-22T10:34:40.487Z,54464.00
2023-03-22T10:35:40.824Z,51040.00
2023-03-22T10:36:40.476Z,51712.00
2023-03-22T10:37:40.490Z,47488.00
2023-03-22T10:38:40.499Z,46400.00
2023-03-22T10:39:40.513Z,48736.00
2023-03-22T10:40:40.558Z,48960.00
2023-03-22T10:41:40.547Z,44352.00
2023-03-22T10:42:40.562Z,44736.00
2023-03-22T10:43:40.677Z,40064.00
2023-03-22T10:44:40.597Z,36800.00
2023-03-22T10:45:40.791Z,28576.00
2023-03-22T10:46:40.652Z,47040.00
2023-03-22T10:47:40.627Z,64576.00
2023-03-22T10:48:40.643Z,66272.00
2023-03-22T10:49:40.664Z,40960.00
2023-03-22T10:50:40.694Z,31616.00
2023-03-22T10:51:40.693Z,33184.00
2023-03-22T10:52:40.715Z,29792.00
2023-03-22T10:53:40.715Z,31456.00
2023-03-22T10:54:40.733Z,39936.00
2023-03-22T10:55:41.007Z,47360.00
2023-03-22T10:56:40.758Z,48064.00
2023-03-22T10:57:40.777Z,59104.00
2023-03-22T10:58:40.790Z,73408.00
2023-03-22T10:59:40.792Z,80416.00
2023-03-22T11:00:42.474Z,85824.00
2023-03-22T11:01:40.952Z,86464.00
2023-03-22T11:02:40.969Z,24704.00
2023-03-22T11:03:40.856Z,72352.00
2023-03-22T11:04:40.866Z,70784.00
2023-03-22T11:05:41.240Z,72512.00
2023-03-22T11:06:40.914Z,26272.00
2023-03-22T11:07:40.908Z,74976.00
2023-03-22T11:08:40.925Z,43712.00
2023-03-22T11:09:40.935Z,77248.00
2023-03-22T11:10:41.048Z,75008.00
2023-03-22T11:11:41.310Z,74400.00
2023-03-22T11:12:44.924Z,76704.00
2023-03-22T11:13:40.994Z,73408.00
2023-03-22T11:14:41.011Z,72864.00
2023-03-22T11:15:41.434Z,67520.00
2023-03-22T11:16:41.068Z,68864.00
2023-03-22T11:17:42.774Z,61088.00
2023-03-22T11:18:41.068Z,61184.00
2023-03-22T11:19:41.084Z,66272.00
2023-03-22T11:20:41.407Z,66048.00
2023-03-22T11:21:41.111Z,60992.00
2023-03-22T11:28:33.673Z,69184.00
2023-03-22T11:29:33.665Z,73632.00
2023-03-22T11:30:33.680Z,83296.00
2023-03-22T11:31:33.743Z,79648.00
2023-03-22T11:32:33.755Z,72800.00
2023-03-22T11:33:33.729Z,85632.00
2023-03-22T11:34:33.734Z,80576.00
2023-03-22T11:35:33.767Z,84544.00
2023-03-22T11:36:33.764Z,63104.00
2023-03-22T11:37:33.783Z,50368.00
2023-03-22T11:38:33.803Z,83712.00
2023-03-22T11:39:33.819Z,89728.00
2023-03-22T11:40:33.837Z,83264.00
2023-03-22T11:41:33.844Z,72448.00
2023-03-22T11:42:33.867Z,82432.00
2023-03-22T11:43:33.890Z,75808.00
2023-03-22T11:44:33.912Z,68672.00
2023-03-22T11:45:33.909Z,66816.00
2023-03-22T11:46:34.007Z,62880.00
2023-03-22T11:47:34.038Z,78624.00
2023-03-22T11:51:44.944Z,82976.00
2023-03-22T11:52:44.947Z,87712.00
2023-03-22T12:00:22.695Z,27520.00
2023-03-22T12:01:22.597Z,24704.00
2023-03-22T12:02:22.729Z,26272.00
2023-03-22T12:03:22.743Z,26336.00
2023-03-22T12:04:22.718Z,27648.00
2023-03-22T12:05:22.803Z,40800.00
2023-03-22T12:06:22.744Z,77536.00
2023-03-22T12:07:22.678Z,92608.00
2023-03-22T12:08:22.700Z,95520.00
2023-03-22T12:09:22.714Z,92928.00
2023-03-22T12:10:22.725Z,91744.00
2023-03-22T12:11:22.741Z,90496.00
2023-03-22T12:12:22.747Z,89280.00
2023-03-22T12:13:22.792Z,75968.00
2023-03-22T12:14:22.784Z,77056.00
2023-03-22T12:15:22.793Z,82176.00
2023-03-22T12:16:24.766Z,59680.00
2023-03-22T12:17:22.889Z,67968.00
2023-03-22T12:18:22.994Z,86048.00
2023-03-22T12:19:22.860Z,91840.00
2023-03-22T12:20:22.878Z,91136.00
2023-03-22T12:21:22.884Z,85088.00
2023-03-22T12:22:22.910Z,86848.00
2023-03-22T12:24:05.468Z,92256.00
2023-03-22T12:25:05.486Z,93504.00
2023-03-22T12:27:03.092Z,87072.00
2023-03-22T12:41:29.037Z,71808.00
2023-03-22T12:42:29.311Z,71936.00
2023-03-22T12:44:11.604Z,45728.00
2023-03-22T12:45:11.610Z,39968.00
2023-03-22T12:46:11.654Z,31616.00
2023-03-22T12:47:11.750Z,39072.00
2023-03-22T12:50:52.594Z,68288.00
2023-03-22T12:51:52.592Z,68800.00
2023-03-22T12:52:53.901Z,62592.00
2023-03-22T12:53:52.610Z,54336.00
2023-03-22T12:54:52.635Z,53696.00
2023-03-22T12:55:52.639Z,53664.00
2023-03-22T12:56:52.681Z,51552.00
2023-03-22T12:57:52.678Z,44224.00
2023-03-22T12:58:52.698Z,44064.00
2023-03-22T12:59:52.696Z,55200.00
2023-03-22T13:00:52.783Z,56256.00
2023-03-22T13:01:52.719Z,49088.00
2023-03-22T13:02:52.829Z,47872.00
2023-03-22T13:03:52.877Z,46784.00
2023-03-22T13:04:52.764Z,46272.00
2023-03-22T13:05:52.778Z,46688.00
2023-03-22T13:06:52.795Z,45984.00
2023-03-22T13:07:52.805Z,40704.00
2023-03-22T13:08:52.826Z,33312.00
2023-03-22T13:09:52.842Z,35552.00
2023-03-22T13:10:52.849Z,38752.00
2023-03-22T13:11:53.310Z,38784.00
2023-03-22T13:12:52.906Z,33280.00
2023-03-22T13:13:52.892Z,34112.00
2023-03-22T13:14:53.083Z,38272.00
2023-03-22T13:15:52.922Z,40832.00
2023-03-22T13:16:53.143Z,41056.00
2023-03-22T13:17:53.019Z,45760.00
2023-03-22T13:18:52.973Z,43072.00
2023-03-22T13:19:52.976Z,38240.00
2023-03-22T13:20:52.986Z,29888.00
2023-03-22T13:21:54.815Z,29120.00
2023-03-22T13:22:53.014Z,33632.00
2023-03-22T13:23:53.036Z,36576.00
2023-03-22T13:24:53.043Z,41440.00
2023-03-22T13:25:53.056Z,45088.00
2023-03-22T13:26:53.084Z,50304.00
2023-03-22T13:27:53.119Z,44576.00
2023-03-22T13:28:53.124Z,43904.00
2023-03-22T13:29:53.117Z,52512.00
2023-03-22T13:30:53.126Z,61600.00
2023-03-22T13:31:53.227Z,63904.00
2023-03-22T13:32:55.783Z,65728.00
2023-03-22T13:33:53.163Z,67488.00
2023-03-22T13:34:53.179Z,67904.00
2023-03-22T13:35:53.210Z,64384.00
2023-03-22T13:36:53.198Z,54880.00
2023-03-22T13:37:53.211Z,59200.00
2023-03-22T13:38:53.233Z,33440.00
2023-03-22T13:39:53.245Z,62176.00
2023-03-22T13:40:53.312Z,58784.00
2023-03-22T13:41:53.265Z,55104.00
2023-03-22T13:42:53.284Z,48800.00
2023-03-22T13:43:53.314Z,51328.00
2023-03-22T13:44:53.354Z,52928.00
2023-03-22T13:45:53.404Z,44768.00
2023-03-22T13:46:53.351Z,46144.00
2023-03-22T13:47:53.417Z,44256.00
2023-03-22T13:48:53.420Z,43424.00
2023-03-22T13:49:53.389Z,47424.00
2023-03-22T13:50:53.404Z,48672.00
2023-03-22T13:51:53.416Z,48352.00
2023-03-22T13:52:53.431Z,49856.00
2023-03-22T13:53:53.440Z,51904.00
2023-03-22T13:54:53.462Z,54080.00
2023-03-22T13:55:53.472Z,53376.00
2023-03-22T13:56:53.490Z,47584.00
2023-03-22T13:57:56.960Z,44832.00
2023-03-22T13:58:53.518Z,43808.00
2023-03-22T14:00:03.117Z,41088.00
2023-03-22T14:00:53.616Z,33984.00
2023-03-22T14:01:53.580Z,34048.00
2023-03-22T14:02:53.747Z,36352.00
2023-03-22T14:03:53.718Z,39360.00
2023-03-22T14:04:53.601Z,40960.00
2023-03-22T14:05:55.660Z,35360.00
2023-03-22T14:06:53.636Z,32160.00
2023-03-22T14:07:53.653Z,40832.00
2023-03-22T14:08:53.658Z,52768.00
2023-03-22T14:09:53.674Z,54048.00
2023-03-22T14:10:53.693Z,51360.00
2023-03-22T14:11:55.779Z,49376.00
2023-03-22T14:12:53.752Z,39936.00
2023-03-22T14:13:53.748Z,38336.00
2023-03-22T14:14:53.756Z,39040.00
2023-03-22T14:15:53.841Z,35680.00
2023-03-22T14:16:53.808Z,33984.00
2023-03-22T14:17:53.849Z,35392.00
2023-03-22T14:18:53.808Z,35424.00
2023-03-22T14:19:53.819Z,37184.00
2023-03-22T14:20:53.829Z,41696.00
2023-03-22T14:46:15.781Z,11436.00
2023-03-22T14:47:15.761Z,11192.00
2023-03-22T14:48:15.778Z,10868.00
2023-03-22T14:49:15.786Z,10416.00
2023-03-22T14:50:15.814Z,9940.00
2023-03-22T14:51:15.811Z,9524.00
2023-03-22T14:52:15.833Z,9256.00
2023-03-22T14:53:15.841Z,9012.00
2023-03-22T14:54:15.897Z,8808.00
2023-03-22T14:55:16.870Z,8532.00
2023-03-22T14:56:15.880Z,8324.00
2023-03-22T14:57:15.926Z,8264.00
2023-03-22T14:58:15.902Z,8100.00
2023-03-22T14:59:15.906Z,8016.00
2023-03-22T15:13:01.696Z,6000.00
2023-03-22T15:14:01.684Z,5788.00
2023-03-22T15:15:01.686Z,5576.00
2023-03-22T15:16:01.730Z,5420.00
2023-03-22T15:17:01.705Z,5328.00
2023-03-22T15:18:01.718Z,5340.00
2023-03-22T15:19:01.731Z,5452.00
2023-03-22T15:20:01.734Z,5696.00
2023-03-22T15:21:01.751Z,5980.00
2023-03-22T15:22:01.761Z,6280.00
2023-03-22T15:23:01.773Z,6536.00
2023-03-22T15:24:01.777Z,6692.00
2023-03-22T15:25:01.785Z,6720.00
2023-03-22T15:26:01.812Z,6812.00
2023-03-22T15:27:01.800Z,6900.00
2023-03-22T15:28:01.818Z,6988.00
2023-03-22T15:29:01.850Z,6976.00
2023-03-22T15:30:01.878Z,6996.00
2023-03-22T15:31:01.852Z,7192.00
2023-03-22T15:32:01.863Z,7164.00
2023-03-22T15:33:01.866Z,6940.00
2023-03-22T15:34:01.881Z,6748.00
2023-03-22T15:35:01.878Z,6648.00
2023-03-22T15:36:01.901Z,6780.00
2023-03-22T15:37:01.902Z,6968.00
2023-03-22T15:38:01.907Z,7196.00
2023-03-22T15:39:01.921Z,7080.00
2023-03-22T15:40:01.934Z,6956.00
2023-03-22T15:41:01.939Z,6856.00
2023-03-22T15:42:01.942Z,6832.00
2023-03-22T15:43:01.953Z,6840.00
2023-03-22T15:44:01.973Z,6732.00
2023-03-22T15:45:01.992Z,6580.00
2023-03-22T15:46:02.041Z,6420.00
2023-03-22T15:47:02.002Z,6252.00
2023-03-22T15:48:01.998Z,6092.00
2023-03-22T15:49:02.008Z,5952.00
2023-03-22T15:50:02.139Z,5804.00
2023-03-22T15:51:02.045Z,5628.00
2023-03-22T15:52:02.041Z,5408.00
2023-03-22T15:53:02.044Z,5184.00
2023-03-22T15:54:02.064Z,5000.00
2023-03-22T15:55:02.070Z,4852.00
2023-03-22T15:56:02.084Z,4704.00
2023-03-22T15:57:02.092Z,4592.00
2023-03-22T15:58:02.106Z,4472.00
2023-03-22T15:59:02.106Z,4348.00
2023-03-22T16:00:02.207Z,4228.00
2023-03-22T16:01:02.155Z,4120.00
2023-03-22T16:02:02.124Z,3992.00
2023-03-22T16:03:02.145Z,3876.00
2023-03-22T16:04:02.153Z,3760.00
2023-03-22T16:05:02.151Z,3640.00
2023-03-22T16:06:02.174Z,3512.00
2023-03-22T16:07:02.171Z,3364.00
2023-03-22T16:08:02.187Z,3252.00
2023-03-22T16:09:03.318Z,3120.00
2023-03-22T16:10:02.204Z,2936.00
2023-03-22T16:11:02.212Z,2716.00
2023-03-22T16:12:02.220Z,2512.00
2023-03-22T16:13:02.237Z,2384.00
2023-03-22T16:14:02.233Z,2296.00
2023-03-22T16:15:02.254Z,2248.00
2023-03-22T16:16:02.258Z,2244.00
2023-03-22T16:17:02.340Z,2208.00
2023-03-22T16:18:02.277Z,2052.00
2023-03-22T16:19:02.284Z,1808.00
2023-03-22T16:20:02.339Z,1576.00
2023-03-22T16:21:02.301Z,1400.00
2023-03-22T16:22:02.311Z,1304.00
2023-03-22T16:23:02.313Z,1220.00
2023-03-22T16:24:02.321Z,1148.00
2023-03-22T16:25:02.333Z,1084.00
2023-03-22T16:26:02.346Z,1012.00
2023-03-22T16:27:02.353Z,932.00
2023-03-22T16:28:02.355Z,876.00
2023-03-22T16:29:02.377Z,852.00
2023-03-22T16:30:02.379Z,836.00
2023-03-22T16:31:04.545Z,812.00
2023-03-22T16:32:02.394Z,800.00
2023-03-22T16:33:02.437Z,776.00
2023-03-22T16:34:02.413Z,748.00
2023-03-22T16:35:02.414Z,720.00
2023-03-22T16:36:02.470Z,708.00
2023-03-22T16:37:02.437Z,716.00
2023-03-22T16:50:48.183Z,460.00
2023-03-22T16:51:48.161Z,440.00
2023-03-22T16:52:48.169Z,424.00
2023-03-22T16:53:48.177Z,424.00
2023-03-22T16:54:48.185Z,424.00
2023-03-22T16:55:48.199Z,420.00
2023-03-22T16:56:48.200Z,412.00
2023-03-22T16:57:48.207Z,412.00
2023-03-22T16:58:48.221Z,416.00
2023-03-22T16:59:48.244Z,420.00
2023-03-22T17:00:48.232Z,416.00
2023-03-22T17:01:48.283Z,400.00
2023-03-22T17:02:48.254Z,372.00
2023-03-22T17:03:48.272Z,352.00
2023-03-22T17:04:48.302Z,332.00
2023-03-22T17:10:12.490Z,244.00
2023-03-22T17:11:12.569Z,228.00
2023-03-22T17:12:12.487Z,220.00
2023-03-22T17:13:12.497Z,208.00
2023-03-22T17:14:12.499Z,196.00
2023-03-22T17:15:12.514Z,188.00
2023-03-22T17:16:12.608Z,180.00
2023-03-22T17:17:12.534Z,164.00
2023-03-22T17:18:12.541Z,152.00
2023-03-22T17:19:12.535Z,136.00
2023-03-22T17:20:12.549Z,120.00
2023-03-22T17:21:12.559Z,108.00
2023-03-22T17:22:12.559Z,100.00
2023-03-22T17:23:12.579Z,88.00
2023-03-22T17:24:12.577Z,80.00
2023-03-22T17:25:12.593Z,72.00
2023-03-22T17:26:12.619Z,68.00
2023-03-22T17:27:12.605Z,56.00
2023-03-22T17:28:12.614Z,52.00
2023-03-22T17:29:12.628Z,48.00
2023-03-22T17:30:12.629Z,44.00
2023-03-22T17:31:12.656Z,40.00
2023-03-22T17:32:18.173Z,36.00
2023-03-22T17:33:12.805Z,32.00
2023-03-22T17:34:12.663Z,28.00
2023-03-22T17:35:12.665Z,28.00
2023-03-22T17:36:12.745Z,24.00
2023-03-22T17:37:12.685Z,24.00
2023-03-22T17:38:14.089Z,24.00
2023-03-22T17:39:30.967Z,20.00
2023-03-22T17:40:32.052Z,16.00
2023-03-22T17:41:12.710Z,12.00
2023-03-22T17:42:12.750Z,12.00
2023-03-22T17:43:12.727Z,12.00
2023-03-22T17:44:12.731Z,12.00
2023-03-22T17:45:12.746Z,8.00
2023-03-22T17:46:58.342Z,4.00
2023-03-22T17:48:12.791Z,4.00
2023-03-22T17:49:12.776Z,4.00
2023-03-22T17:50:12.776Z,4.00
2023-03-22T17:51:12.790Z,4.00
2023-03-22T17:52:12.797Z,4.00
2023-03-22T17:53:30.148Z,4.00
2023-03-22T17:54:50.947Z,0.00
2023-03-22T17:55:19.657Z,0.00
2023-03-22T17:56:43.128Z,0.00
2023-03-22T17:58:34.756Z,0.00
2023-03-22T17:59:12.843Z,0.00
2023-03-22T18:00:12.846Z,0.00
2023-03-22T18:01:12.933Z,0.00
2023-03-22T18:02:16.269Z,0.00
2023-03-22T18:03:12.895Z,0.00
2023-03-22T18:04:12.878Z,0.00
2023-03-22T18:05:13.219Z,0.00
2023-03-22T18:06:12.900Z,0.00
2023-03-22T18:07:12.901Z,0.00
2023-03-22T18:08:27.270Z,0.00
2023-03-22T18:09:12.916Z,0.00
2023-03-22T18:10:12.939Z,0.00
2023-03-22T18:11:12.929Z,0.00
2023-03-22T18:12:12.949Z,0.00
2023-03-22T18:13:12.942Z,0.00
2023-03-22T18:14:24.868Z,0.00
2023-03-22T18:15:12.964Z,0.00
2023-03-22T18:16:13.010Z,0.00
2023-03-22T18:18:12.987Z,0.00
2023-03-22T18:19:12.994Z,0.00
2023-03-22T18:21:20.593Z,0.00
2023-03-22T18:22:20.595Z,0.00
2023-03-22T18:23:20.619Z,0.00
2023-03-22T18:24:20.621Z,0.00
2023-03-22T18:25:21.209Z,0.00
2023-03-22T18:26:28.444Z,0.00
2023-03-22T18:31:29.879Z,0.00
2023-03-22T18:32:48.649Z,0.00
2023-03-22T18:33:29.819Z,0.00
2023-03-22T18:34:29.821Z,0.00
2023-03-22T18:35:29.822Z,0.00
2023-03-22T18:36:29.915Z,0.00
2023-03-22T18:37:29.869Z,0.00
2023-03-22T18:39:02.984Z,0.00
2023-03-22T18:40:10.606Z,0.00
2023-03-22T18:41:03.847Z,0.00
2023-03-22T18:41:44.891Z,0.00
2023-03-22T18:42:41.041Z,0.00
2023-03-22T18:43:29.887Z,0.00
2023-03-22T18:44:29.896Z,0.00
2023-03-22T18:45:47.232Z,0.00
2023-03-22T18:46:29.953Z,0.00
2023-03-22T18:47:29.942Z,0.00
2023-03-22T18:48:29.940Z,0.00
2023-03-22T18:49:29.923Z,0.00
2023-03-22T18:50:29.926Z,0.00
2023-03-22T18:51:32.512Z,0.00
2023-03-22T18:52:41.653Z,0.00
2023-03-22T18:53:29.948Z,0.00
2023-03-22T18:54:29.960Z,0.00
2023-03-22T18:55:36.270Z,0.00
2023-03-22T18:56:32.245Z,0.00
2023-03-22T18:57:32.438Z,0.00
2023-03-22T18:58:29.997Z,0.00
2023-03-22T18:59:29.990Z,0.00
2023-03-22T19:00:30.005Z,0.00
2023-03-22T19:01:30.319Z,0.00
2023-03-22T19:02:39.848Z,0.00
2023-03-22T19:03:30.049Z,0.00
2023-03-22T19:04:30.053Z,0.00
2023-03-22T19:05:30.053Z,0.00
2023-03-22T19:06:30.048Z,0.00
2023-03-22T19:07:48.056Z,0.00
2023-03-22T19:08:30.358Z,0.00
2023-03-22T19:09:30.069Z,0.00
2023-03-22T19:10:30.075Z,0.00
2023-03-22T19:11:30.076Z,0.00
2023-03-22T19:12:30.094Z,0.00
2023-03-22T19:13:30.098Z,0.00
2023-03-22T19:15:11.648Z,0.00
2023-03-22T19:15:44.407Z,0.00
2023-03-22T19:16:30.113Z,0.00
2023-03-22T19:17:30.119Z,0.00
2023-03-22T19:18:30.133Z,0.00
2023-03-22T19:19:30.168Z,0.00
2023-03-22T19:20:39.831Z,0.00
2023-03-22T19:21:32.626Z,0.00
2023-03-22T19:22:30.162Z,0.00
2023-03-22T19:23:30.181Z,0.00
2023-03-22T19:24:30.179Z,0.00
2023-03-22T19:25:30.176Z,0.00
2023-03-22T19:26:30.542Z,0.00
2023-03-22T19:27:30.197Z,0.00
2023-03-22T19:28:30.196Z,0.00
2023-03-22T19:29:30.205Z,0.00
2023-03-22T19:30:30.232Z,0.00
2023-03-22T19:35:39.726Z,0.00
2023-03-22T19:36:39.403Z,0.00
2023-03-22T19:37:39.402Z,0.00
2023-03-22T19:38:39.402Z,0.00
2023-03-22T19:39:39.424Z,0.00
2023-03-22T19:41:28.230Z,0.00
2023-03-22T19:41:54.755Z,0.00
2023-03-22T19:42:39.430Z,0.00
2023-03-22T19:43:39.435Z,0.00
2023-03-22T19:44:39.446Z,0.00
2023-03-22T19:45:39.562Z,0.00
2023-03-22T19:46:40.526Z,0.00
2023-03-22T19:48:39.545Z,0.00
2023-03-22T19:49:39.487Z,0.00
2023-03-22T19:50:39.486Z,0.00
2023-03-22T19:51:39.514Z,0.00
2023-03-22T19:52:39.510Z,0.00
2023-03-22T19:54:17.160Z,0.00
2023-03-22T19:54:45.212Z,0.00
2023-03-22T19:55:39.734Z,0.00
2023-03-22T19:56:39.530Z,0.00
2023-03-22T19:57:39.551Z,0.00
2023-03-22T19:58:39.551Z,0.00
2023-03-22T19:59:39.551Z,0.00
2023-03-22T20:01:39.566Z,0.00
2023-03-22T20:02:39.579Z,0.00
2023-03-22T20:03:39.578Z,0.00
2023-03-22T20:04:39.586Z,0.00
2023-03-22T20:05:47.667Z,0.00
2023-03-22T20:06:39.608Z,0.00
2023-03-22T20:07:39.630Z,0.00
2023-03-22T20:08:39.638Z,0.00
2023-03-22T20:09:39.633Z,0.00
2023-03-22T20:10:39.644Z,0.00
2023-03-22T20:11:43.531Z,0.00
2023-03-22T20:12:39.651Z,0.00
2023-03-22T20:13:39.673Z,0.00
2023-03-22T20:14:39.657Z,0.00
2023-03-22T20:15:39.899Z,0.00
2023-03-22T20:16:39.693Z,0.00
2023-03-22T20:17:39.701Z,0.00
2023-03-22T20:18:39.699Z,0.00
2023-03-22T20:20:32.261Z,0.00
2023-03-22T20:21:32.260Z,0.00
2023-03-22T20:22:32.272Z,0.00
2023-03-22T20:23:32.305Z,0.00
2023-03-22T20:24:32.289Z,0.00
2023-03-22T20:25:32.289Z,0.00
2023-03-22T20:26:32.304Z,0.00
2023-03-22T20:27:32.311Z,0.00
2023-03-22T20:28:32.318Z,0.00
2023-03-22T20:29:32.315Z,0.00
2023-03-22T20:30:32.332Z,0.00
2023-03-22T20:31:32.333Z,0.00
2023-03-22T20:32:32.338Z,0.00
2023-03-22T20:33:32.350Z,0.00
2023-03-22T20:34:32.360Z,0.00
2023-03-22T20:35:32.360Z,0.00
2023-03-22T20:36:32.405Z,0.00
2023-03-22T20:37:32.381Z,0.00
2023-03-22T20:38:32.387Z,0.00
2023-03-22T20:39:32.417Z,0.00
2023-03-22T20:40:32.392Z,0.00
2023-03-22T20:41:33.189Z,0.00
2023-03-22T20:42:32.404Z,0.00
2023-03-22T20:43:32.410Z,0.00
2023-03-22T20:44:32.417Z,0.00
2023-03-22T20:45:32.425Z,0.00
2023-03-22T20:46:32.434Z,0.00
2023-03-22T20:47:33.405Z,0.00
2023-03-22T20:48:32.451Z,0.00
2023-03-22T20:49:32.449Z,0.00
2023-03-22T20:50:32.464Z,0.00
2023-03-22T20:51:32.461Z,0.00
2023-03-22T20:52:32.478Z,0.00
2023-03-22T20:53:32.482Z,0.00
2023-03-22T20:54:32.484Z,0.00
2023-03-22T20:55:32.517Z,0.00
2023-03-22T20:56:32.494Z,0.00
2023-03-22T20:57:32.506Z,0.00
2023-03-22T20:58:32.520Z,0.00
2023-03-22T20:59:32.516Z,0.00
2023-03-22T21:00:32.536Z,0.00
2023-03-22T21:01:32.529Z,0.00
2023-03-22T21:02:32.543Z,0.00
2023-03-22T21:03:32.551Z,0.00
2023-03-22T21:04:32.553Z,0.00
2023-03-22T21:05:32.562Z,0.00
2023-03-22T21:06:32.566Z,0.00
2023-03-22T21:07:32.569Z,0.00
2023-03-22T21:08:32.589Z,0.00
2023-03-22T21:09:32.588Z,0.00
2023-03-22T21:10:32.591Z,0.00
2023-03-22T21:11:32.619Z,0.00
2023-03-22T21:12:32.604Z,0.00
2023-03-22T21:13:32.624Z,0.00
2023-03-22T21:14:32.619Z,0.00
2023-03-22T21:15:32.638Z,0.00
2023-03-22T21:16:32.640Z,0.00
2023-03-22T21:17:32.640Z,0.00
2023-03-22T21:18:32.647Z,0.00
2023-03-22T21:19:32.654Z,0.00
2023-03-22T21:20:32.980Z,0.00
2023-03-22T21:21:33.519Z,0.00
2023-03-22T21:22:32.685Z,0.00
2023-03-22T21:23:32.691Z,0.00
2023-03-22T21:24:32.688Z,0.00
2023-03-22T21:25:32.703Z,0.00
2023-03-22T21:26:32.708Z,0.00
2023-03-22T21:27:32.729Z,0.00
2023-03-22T21:28:32.717Z,0.00
2023-03-22T21:29:32.725Z,0.00
2023-03-22T21:30:32.729Z,0.00
2023-03-22T21:31:32.736Z,0.00
2023-03-22T21:32:32.744Z,0.00
2023-03-22T21:33:32.750Z,0.00
2023-03-22T21:34:32.758Z,0.00
2023-03-22T21:35:32.764Z,0.00
2023-03-22T21:36:32.793Z,0.00
2023-03-22T21:37:32.779Z,0.00
2023-03-22T21:38:32.792Z,0.00
2023-03-22T21:39:32.790Z,0.00
2023-03-22T21:40:32.800Z,0.00
2023-03-22T21:41:32.812Z,0.00
2023-03-22T21:42:33.121Z,0.00
2023-03-22T21:43:32.851Z,0.00
2023-03-22T21:44:32.835Z,0.00
2023-03-22T21:45:32.840Z,0.00
2023-03-22T21:46:32.840Z,0.00
2023-03-22T21:47:32.853Z,0.00
2023-03-22T21:48:32.853Z,0.00
2023-03-22T21:49:32.865Z,0.00
2023-03-22T21:50:32.873Z,0.00
2023-03-22T21:51:32.868Z,0.00
2023-03-22T21:52:32.881Z,0.00
2023-03-22T21:53:32.890Z,0.00
2023-03-22T21:54:32.901Z,0.00
2023-03-22T21:55:32.909Z,0.00
2023-03-22T21:56:32.910Z,0.00
2023-03-22T21:57:32.917Z,0.00
2023-03-22T21:58:32.916Z,0.00
2023-03-22T21:59:32.953Z,0.00
2023-03-22T22:00:32.930Z,0.00
2023-03-22T22:01:32.947Z,0.00
2023-03-22T22:02:32.952Z,0.00
2023-03-22T22:03:32.965Z,0.00
2023-03-22T22:04:32.959Z,0.00
2023-03-22T22:05:32.962Z,0.00
2023-03-22T22:06:32.969Z,0.00
2023-03-22T22:07:32.977Z,0.00
2023-03-22T22:08:32.993Z,0.00
2023-03-22T22:09:33.002Z,0.00
2023-03-22T22:10:32.996Z,0.00
2023-03-22T22:11:33.003Z,0.00
2023-03-22T22:12:33.011Z,0.00
2023-03-22T22:13:33.023Z,0.00
2023-03-22T22:14:33.026Z,0.00
2023-03-22T22:15:33.062Z,0.00
2023-03-22T22:16:33.037Z,0.00
2023-03-22T22:21:42.211Z,0.00
2023-03-22T22:22:42.210Z,0.00
2023-03-22T22:23:42.225Z,0.00
2023-03-22T22:24:42.230Z,0.00
2023-03-22T22:25:42.489Z,0.00
2023-03-22T22:26:42.238Z,0.00
2023-03-22T22:27:42.250Z,0.00
2023-03-22T22:28:42.248Z,0.00
2023-03-22T22:29:42.263Z,0.00
2023-03-22T22:30:42.292Z,0.00
2023-03-22T22:31:42.269Z,0.00
2023-03-22T22:32:42.282Z,0.00
2023-03-22T22:33:42.282Z,0.00
2023-03-22T22:34:42.298Z,0.00
2023-03-22T22:35:42.494Z,0.00
2023-03-22T22:36:42.307Z,0.00
2023-03-22T22:37:42.304Z,0.00
2023-03-22T22:38:42.321Z,0.00
2023-03-22T22:39:42.320Z,0.00
2023-03-22T22:40:42.337Z,0.00
2023-03-22T22:41:42.339Z,0.00
2023-03-22T22:42:42.347Z,0.00
2023-03-22T22:43:42.347Z,0.00
2023-03-22T22:44:42.362Z,0.00
2023-03-22T22:45:42.644Z,0.00
2023-03-22T22:46:42.388Z,0.00
2023-03-22T22:47:42.383Z,0.00
2023-03-22T22:48:42.387Z,0.00
2023-03-22T22:49:42.385Z,0.00
2023-03-22T22:50:42.401Z,0.00
2023-03-22T22:51:42.397Z,0.00
2023-03-22T22:52:42.404Z,0.00
2023-03-22T22:53:42.411Z,0.00
2023-03-22T22:54:42.418Z,0.00
2023-03-22T22:55:42.690Z,0.00
2023-03-22T22:56:42.429Z,0.00
2023-03-22T22:57:42.451Z,0.00
2023-03-22T22:58:42.452Z,0.00
2023-03-22T22:59:42.449Z,0.00
2023-03-22T23:00:42.460Z,0.00
2023-03-22T23:01:42.460Z,0.00
2023-03-22T23:02:42.492Z,0.00
2023-03-22T23:03:42.483Z,0.00
2023-03-22T23:04:42.483Z,0.00
2023-03-22T23:05:42.700Z,0.00
2023-03-22T23:06:42.502Z,0.00
2023-03-22T23:07:42.507Z,0.00
2023-03-22T23:08:42.526Z,0.00
2023-03-22T23:09:42.520Z,0.00
2023-03-22T23:10:42.517Z,0.00
2023-03-22T23:11:42.533Z,0.00
2023-03-22T23:12:42.571Z,0.00
2023-03-22T23:13:42.544Z,0.00
2023-03-22T23:14:42.550Z,0.00
2023-03-22T23:15:42.700Z,0.00
2023-03-22T23:16:42.564Z,0.00
2023-03-22T23:20:08.449Z,0.00
2023-03-22T23:21:08.424Z,0.00
2023-03-22T23:22:08.428Z,0.00
2023-03-22T23:23:08.428Z,0.00
2023-03-22T23:24:08.443Z,0.00
2023-03-22T23:25:08.441Z,0.00
2023-03-22T23:26:08.457Z,0.00
2023-03-22T23:27:08.455Z,0.00
2023-03-22T23:28:08.468Z,0.00